sensor_id;sensor_type;location;lat;lon;timestamp;P1;durP1;ratioP1;P2;durP2;ratioP2
39728;SDS011;25402;42.004;23.088;2023-03-01T00:02:11;8.43;;;4.47;;
39728;SDS011;25402;42.004;23.088;2023-03-01T00:04:39;14.73;;;4.72;;
39728;SDS011;25402;42.004;23.088;2023-03-01T00:07:05;7.28;;;4.13;;
39728;SDS011;25402;42.004;23.088;2023-03-01T00:09:32;9.77;;;4.68;;
39728;SDS011;25402;42.004;23.088;2023-03-01T00:11:58;8.02;;;5.10;;
39728;SDS011;25402;42.004;23.088;2023-03-01T00:14:25;10.02;;;4.90;;
39728;SDS011;25402;42.004;23.088;2023-03-01T00:16:51;7.28;;;4.50;;
39728;SDS011;25402;42.004;23.088;2023-03-01T00:19:19;7.53;;;4.50;;
39728;SDS011;25402;42.004;23.088;2023-03-01T00:21:48;7.57;;;4.40;;
39728;SDS011;25402;42.004;23.088;2023-03-01T00:24:15;10.90;;;5.03;;
39728;SDS011;25402;42.004;23.088;2023-03-01T00:26:41;8.95;;;5.07;;
39728;SDS011;25402;42.004;23.088;2023-03-01T00:29:08;7.65;;;4.80;;
39728;SDS011;25402;42.004;23.088;2023-03-01T00:31:35;9.07;;;5.28;;
39728;SDS011;25402;42.004;23.088;2023-03-01T00:34:03;14.00;;;6.05;;
39728;SDS011;25402;42.004;23.088;2023-03-01T00:36:30;12.07;;;5.70;;
39728;SDS011;25402;42.004;23.088;2023-03-01T00:38:58;9.15;;;5.40;;
39728;SDS011;25402;42.004;23.088;2023-03-01T00:41:25;9.07;;;4.93;;
39728;SDS011;25402;42.004;23.088;2023-03-01T00:43:52;8.55;;;4.68;;
39728;SDS011;25402;42.004;23.088;2023-03-01T00:46:20;12.68;;;4.78;;
39728;SDS011;25402;42.004;23.088;2023-03-01T00:48:48;10.90;;;4.85;;
39728;SDS011;25402;42.004;23.088;2023-03-01T00:51:15;7.53;;;4.50;;
39728;SDS011;25402;42.004;23.088;2023-03-01T00:53:42;8.63;;;4.57;;
39728;SDS011;25402;42.004;23.088;2023-03-01T00:56:11;8.95;;;4.85;;
39728;SDS011;25402;42.004;23.088;2023-03-01T00:58:38;6.70;;;4.28;;
39728;SDS011;25402;42.004;23.088;2023-03-01T01:01:07;8.10;;;4.55;;
39728;SDS011;25402;42.004;23.088;2023-03-01T01:03:42;10.68;;;4.93;;
39728;SDS011;25402;42.004;23.088;2023-03-01T01:06:12;12.27;;;5.00;;
39728;SDS011;25402;42.004;23.088;2023-03-01T01:08:39;8.15;;;4.70;;
39728;SDS011;25402;42.004;23.088;2023-03-01T01:11:05;13.95;;;4.78;;
39728;SDS011;25402;42.004;23.088;2023-03-01T01:13:36;8.00;;;4.20;;
39728;SDS011;25402;42.004;23.088;2023-03-01T01:16:03;13.48;;;4.90;;
39728;SDS011;25402;42.004;23.088;2023-03-01T01:18:29;10.98;;;4.93;;
39728;SDS011;25402;42.004;23.088;2023-03-01T01:20:56;7.75;;;4.72;;
39728;SDS011;25402;42.004;23.088;2023-03-01T01:23:23;7.55;;;4.43;;
39728;SDS011;25402;42.004;23.088;2023-03-01T01:25:49;8.43;;;4.88;;
39728;SDS011;25402;42.004;23.088;2023-03-01T01:28:16;7.82;;;4.60;;
39728;SDS011;25402;42.004;23.088;2023-03-01T01:30:44;11.40;;;4.97;;
39728;SDS011;25402;42.004;23.088;2023-03-01T01:33:11;7.20;;;4.70;;
39728;SDS011;25402;42.004;23.088;2023-03-01T01:35:37;10.20;;;5.30;;
39728;SDS011;25402;42.004;23.088;2023-03-01T01:38:04;9.50;;;5.40;;
39728;SDS011;25402;42.004;23.088;2023-03-01T01:40:30;7.32;;;4.45;;
39728;SDS011;25402;42.004;23.088;2023-03-01T01:42:57;8.27;;;4.88;;
39728;SDS011;25402;42.004;23.088;2023-03-01T01:45:31;11.88;;;4.32;;
39728;SDS011;25402;42.004;23.088;2023-03-01T01:48:00;8.45;;;5.00;;
39728;SDS011;25402;42.004;23.088;2023-03-01T01:50:29;9.15;;;5.35;;
39728;SDS011;25402;42.004;23.088;2023-03-01T01:53:02;10.85;;;6.18;;
39728;SDS011;25402;42.004;23.088;2023-03-01T01:55:30;9.02;;;5.30;;
39728;SDS011;25402;42.004;23.088;2023-03-01T01:57:59;13.50;;;5.80;;
39728;SDS011;25402;42.004;23.088;2023-03-01T02:00:28;6.20;;;4.68;;
39728;SDS011;25402;42.004;23.088;2023-03-01T02:02:56;10.50;;;5.00;;
39728;SDS011;25402;42.004;23.088;2023-03-01T02:05:26;8.38;;;4.18;;
39728;SDS011;25402;42.004;23.088;2023-03-01T02:07:55;7.00;;;4.00;;
39728;SDS011;25402;42.004;23.088;2023-03-01T02:10:23;8.80;;;4.05;;
39728;SDS011;25402;42.004;23.088;2023-03-01T02:12:50;9.30;;;4.30;;
39728;SDS011;25402;42.004;23.088;2023-03-01T02:15:17;7.05;;;3.92;;
39728;SDS011;25402;42.004;23.088;2023-03-01T02:17:44;7.90;;;3.30;;
39728;SDS011;25402;42.004;23.088;2023-03-01T02:20:13;5.88;;;3.15;;
39728;SDS011;25402;42.004;23.088;2023-03-01T02:22:43;6.47;;;2.90;;
39728;SDS011;25402;42.004;23.088;2023-03-01T02:25:12;7.18;;;2.70;;
39728;SDS011;25402;42.004;23.088;2023-03-01T02:27:45;9.50;;;2.97;;
39728;SDS011;25402;42.004;23.088;2023-03-01T02:30:14;5.65;;;2.95;;
39728;SDS011;25402;42.004;23.088;2023-03-01T02:32:41;4.88;;;2.92;;
39728;SDS011;25402;42.004;23.088;2023-03-01T02:35:09;4.60;;;2.83;;
39728;SDS011;25402;42.004;23.088;2023-03-01T02:37:36;5.43;;;2.70;;
39728;SDS011;25402;42.004;23.088;2023-03-01T02:40:04;8.32;;;3.35;;
39728;SDS011;25402;42.004;23.088;2023-03-01T02:42:33;4.20;;;2.80;;
39728;SDS011;25402;42.004;23.088;2023-03-01T02:45:02;3.63;;;2.97;;
39728;SDS011;25402;42.004;23.088;2023-03-01T02:47:30;5.32;;;3.08;;
39728;SDS011;25402;42.004;23.088;2023-03-01T02:49:56;6.13;;;3.50;;
39728;SDS011;25402;42.004;23.088;2023-03-01T02:52:26;7.53;;;3.03;;
39728;SDS011;25402;42.004;23.088;2023-03-01T02:54:56;5.70;;;3.50;;
39728;SDS011;25402;42.004;23.088;2023-03-01T02:57:24;7.50;;;3.30;;
39728;SDS011;25402;42.004;23.088;2023-03-01T02:59:52;3.65;;;2.83;;
39728;SDS011;25402;42.004;23.088;2023-03-01T03:02:20;5.78;;;3.25;;
39728;SDS011;25402;42.004;23.088;2023-03-01T03:05:02;6.57;;;3.55;;
39728;SDS011;25402;42.004;23.088;2023-03-01T03:07:31;5.50;;;3.30;;
39728;SDS011;25402;42.004;23.088;2023-03-01T03:09:58;5.72;;;3.40;;
39728;SDS011;25402;42.004;23.088;2023-03-01T03:12:24;6.25;;;3.17;;
39728;SDS011;25402;42.004;23.088;2023-03-01T03:14:51;8.73;;;4.07;;
39728;SDS011;25402;42.004;23.088;2023-03-01T03:17:17;5.35;;;3.28;;
39728;SDS011;25402;42.004;23.088;2023-03-01T03:19:44;6.47;;;3.88;;
39728;SDS011;25402;42.004;23.088;2023-03-01T03:22:12;6.15;;;3.42;;
39728;SDS011;25402;42.004;23.088;2023-03-01T03:24:39;5.43;;;3.38;;
39728;SDS011;25402;42.004;23.088;2023-03-01T03:27:06;5.45;;;3.53;;
39728;SDS011;25402;42.004;23.088;2023-03-01T03:29:33;5.72;;;3.13;;
39728;SDS011;25402;42.004;23.088;2023-03-01T03:31:59;3.83;;;2.70;;
39728;SDS011;25402;42.004;23.088;2023-03-01T03:34:26;6.60;;;3.10;;
39728;SDS011;25402;42.004;23.088;2023-03-01T03:36:53;4.13;;;2.10;;
39728;SDS011;25402;42.004;23.088;2023-03-01T03:39:23;2.78;;;2.00;;
39728;SDS011;25402;42.004;23.088;2023-03-01T03:41:49;3.38;;;2.33;;
39728;SDS011;25402;42.004;23.088;2023-03-01T03:44:16;4.10;;;2.20;;
39728;SDS011;25402;42.004;23.088;2023-03-01T03:46:42;3.38;;;2.08;;
39728;SDS011;25402;42.004;23.088;2023-03-01T03:49:09;6.07;;;2.90;;
39728;SDS011;25402;42.004;23.088;2023-03-01T03:51:35;7.82;;;3.72;;
39728;SDS011;25402;42.004;23.088;2023-03-01T03:54:02;4.55;;;2.67;;
39728;SDS011;25402;42.004;23.088;2023-03-01T03:56:30;11.20;;;5.57;;
39728;SDS011;25402;42.004;23.088;2023-03-01T03:58:57;9.40;;;3.95;;
39728;SDS011;25402;42.004;23.088;2023-03-01T04:01:23;5.03;;;2.85;;
39728;SDS011;25402;42.004;23.088;2023-03-01T04:03:50;5.88;;;2.53;;
39728;SDS011;25402;42.004;23.088;2023-03-01T04:06:19;3.40;;;2.30;;
39728;SDS011;25402;42.004;23.088;2023-03-01T04:08:46;2.53;;;2.10;;
39728;SDS011;25402;42.004;23.088;2023-03-01T04:11:16;3.63;;;2.35;;
39728;SDS011;25402;42.004;23.088;2023-03-01T04:13:57;3.15;;;2.30;;
39728;SDS011;25402;42.004;23.088;2023-03-01T04:16:24;2.20;;;1.60;;
39728;SDS011;25402;42.004;23.088;2023-03-01T04:18:50;1.77;;;1.50;;
39728;SDS011;25402;42.004;23.088;2023-03-01T04:21:18;2.20;;;1.60;;
39728;SDS011;25402;42.004;23.088;2023-03-01T04:23:45;2.25;;;1.60;;
39728;SDS011;25402;42.004;23.088;2023-03-01T04:26:12;2.58;;;1.67;;
39728;SDS011;25402;42.004;23.088;2023-03-01T04:28:39;2.47;;;1.80;;
39728;SDS011;25402;42.004;23.088;2023-03-01T04:31:10;2.60;;;1.92;;
39728;SDS011;25402;42.004;23.088;2023-03-01T04:33:39;2.67;;;1.80;;
39728;SDS011;25402;42.004;23.088;2023-03-01T04:36:07;2.20;;;1.75;;
39728;SDS011;25402;42.004;23.088;2023-03-01T04:38:37;2.95;;;1.80;;
39728;SDS011;25402;42.004;23.088;2023-03-01T04:41:04;2.33;;;1.52;;
39728;SDS011;25402;42.004;23.088;2023-03-01T04:43:30;4.38;;;2.05;;
39728;SDS011;25402;42.004;23.088;2023-03-01T04:46:02;2.58;;;1.65;;
39728;SDS011;25402;42.004;23.088;2023-03-01T04:48:31;2.67;;;1.92;;
39728;SDS011;25402;42.004;23.088;2023-03-01T04:50:58;3.65;;;2.10;;
39728;SDS011;25402;42.004;23.088;2023-03-01T04:53:24;4.20;;;1.90;;
39728;SDS011;25402;42.004;23.088;2023-03-01T04:55:51;9.02;;;2.30;;
39728;SDS011;25402;42.004;23.088;2023-03-01T04:58:17;2.67;;;2.05;;
39728;SDS011;25402;42.004;23.088;2023-03-01T05:00:44;3.00;;;2.20;;
39728;SDS011;25402;42.004;23.088;2023-03-01T05:03:10;3.22;;;2.25;;
39728;SDS011;25402;42.004;23.088;2023-03-01T05:05:38;3.28;;;2.42;;
39728;SDS011;25402;42.004;23.088;2023-03-01T05:08:05;3.10;;;2.20;;
39728;SDS011;25402;42.004;23.088;2023-03-01T05:10:33;3.72;;;2.67;;
39728;SDS011;25402;42.004;23.088;2023-03-01T05:13:04;8.80;;;4.53;;
39728;SDS011;25402;42.004;23.088;2023-03-01T05:15:31;18.25;;;10.73;;
39728;SDS011;25402;42.004;23.088;2023-03-01T05:17:58;14.00;;;5.65;;
39728;SDS011;25402;42.004;23.088;2023-03-01T05:20:26;5.55;;;3.22;;
39728;SDS011;25402;42.004;23.088;2023-03-01T05:22:56;4.38;;;2.70;;
39728;SDS011;25402;42.004;23.088;2023-03-01T05:25:26;4.80;;;3.10;;
39728;SDS011;25402;42.004;23.088;2023-03-01T05:27:58;5.22;;;2.90;;
39728;SDS011;25402;42.004;23.088;2023-03-01T05:30:29;4.60;;;2.88;;
39728;SDS011;25402;42.004;23.088;2023-03-01T05:32:56;3.88;;;2.75;;
39728;SDS011;25402;42.004;23.088;2023-03-01T05:35:23;4.78;;;2.35;;
39728;SDS011;25402;42.004;23.088;2023-03-01T05:37:50;4.57;;;2.90;;
39728;SDS011;25402;42.004;23.088;2023-03-01T05:40:19;12.02;;;7.40;;
39728;SDS011;25402;42.004;23.088;2023-03-01T05:42:47;9.40;;;5.13;;
39728;SDS011;25402;42.004;23.088;2023-03-01T05:45:14;17.42;;;9.73;;
39728;SDS011;25402;42.004;23.088;2023-03-01T05:47:41;5.45;;;3.45;;
39728;SDS011;25402;42.004;23.088;2023-03-01T05:50:12;16.15;;;8.50;;
39728;SDS011;25402;42.004;23.088;2023-03-01T05:52:39;11.02;;;4.90;;
39728;SDS011;25402;42.004;23.088;2023-03-01T05:55:06;7.45;;;3.97;;
39728;SDS011;25402;42.004;23.088;2023-03-01T05:57:35;6.72;;;3.67;;
39728;SDS011;25402;42.004;23.088;2023-03-01T06:00:02;8.65;;;5.22;;
39728;SDS011;25402;42.004;23.088;2023-03-01T06:02:31;6.90;;;3.80;;
39728;SDS011;25402;42.004;23.088;2023-03-01T06:04:58;5.72;;;3.47;;
39728;SDS011;25402;42.004;23.088;2023-03-01T06:07:24;5.03;;;3.28;;
39728;SDS011;25402;42.004;23.088;2023-03-01T06:09:51;10.27;;;3.75;;
39728;SDS011;25402;42.004;23.088;2023-03-01T06:12:17;7.97;;;3.08;;
39728;SDS011;25402;42.004;23.088;2023-03-01T06:14:46;9.57;;;3.33;;
39728;SDS011;25402;42.004;23.088;2023-03-01T06:17:13;7.65;;;3.13;;
39728;SDS011;25402;42.004;23.088;2023-03-01T06:19:40;10.13;;;5.70;;
39728;SDS011;25402;42.004;23.088;2023-03-01T06:22:07;6.97;;;4.40;;
39728;SDS011;25402;42.004;23.088;2023-03-01T06:24:33;9.57;;;4.97;;
39728;SDS011;25402;42.004;23.088;2023-03-01T06:27:00;10.80;;;4.85;;
39728;SDS011;25402;42.004;23.088;2023-03-01T06:29:26;11.55;;;4.57;;
39728;SDS011;25402;42.004;23.088;2023-03-01T06:31:57;9.15;;;4.28;;
39728;SDS011;25402;42.004;23.088;2023-03-01T06:34:24;9.13;;;4.63;;
39728;SDS011;25402;42.004;23.088;2023-03-01T06:36:51;10.75;;;5.63;;
39728;SDS011;25402;42.004;23.088;2023-03-01T06:39:17;12.40;;;5.20;;
39728;SDS011;25402;42.004;23.088;2023-03-01T06:41:44;11.13;;;4.70;;
39728;SDS011;25402;42.004;23.088;2023-03-01T06:44:11;8.13;;;4.38;;
39728;SDS011;25402;42.004;23.088;2023-03-01T06:46:38;10.20;;;3.42;;
39728;SDS011;25402;42.004;23.088;2023-03-01T06:49:06;7.70;;;3.20;;
39728;SDS011;25402;42.004;23.088;2023-03-01T06:51:34;10.82;;;3.53;;
39728;SDS011;25402;42.004;23.088;2023-03-01T06:54:02;7.60;;;3.70;;
39728;SDS011;25402;42.004;23.088;2023-03-01T06:56:37;11.27;;;3.42;;
39728;SDS011;25402;42.004;23.088;2023-03-01T06:59:04;7.10;;;3.25;;
39728;SDS011;25402;42.004;23.088;2023-03-01T07:01:31;12.05;;;3.15;;
39728;SDS011;25402;42.004;23.088;2023-03-01T07:03:57;6.80;;;3.22;;
39728;SDS011;25402;42.004;23.088;2023-03-01T07:06:25;5.47;;;2.80;;
39728;SDS011;25402;42.004;23.088;2023-03-01T07:08:52;4.63;;;3.10;;
39728;SDS011;25402;42.004;23.088;2023-03-01T07:11:18;5.20;;;2.90;;
39728;SDS011;25402;42.004;23.088;2023-03-01T07:13:45;11.45;;;3.30;;
39728;SDS011;25402;42.004;23.088;2023-03-01T07:16:11;4.68;;;2.53;;
39728;SDS011;25402;42.004;23.088;2023-03-01T07:18:39;5.75;;;2.80;;
39728;SDS011;25402;42.004;23.088;2023-03-01T07:21:06;13.77;;;3.08;;
39728;SDS011;25402;42.004;23.088;2023-03-01T07:23:34;16.48;;;3.88;;
39728;SDS011;25402;42.004;23.088;2023-03-01T07:26:01;8.75;;;3.63;;
39728;SDS011;25402;42.004;23.088;2023-03-01T07:28:27;8.50;;;3.40;;
39728;SDS011;25402;42.004;23.088;2023-03-01T07:30:54;11.20;;;3.40;;
39728;SDS011;25402;42.004;23.088;2023-03-01T07:33:21;6.90;;;3.22;;
39728;SDS011;25402;42.004;23.088;2023-03-01T07:35:47;9.73;;;3.38;;
39728;SDS011;25402;42.004;23.088;2023-03-01T07:38:14;5.35;;;3.20;;
39728;SDS011;25402;42.004;23.088;2023-03-01T07:40:42;6.13;;;3.20;;
39728;SDS011;25402;42.004;23.088;2023-03-01T07:43:08;8.70;;;3.13;;
39728;SDS011;25402;42.004;23.088;2023-03-01T07:45:35;6.28;;;3.10;;
39728;SDS011;25402;42.004;23.088;2023-03-01T07:48:02;4.93;;;2.03;;
39728;SDS011;25402;42.004;23.088;2023-03-01T07:50:28;7.00;;;2.80;;
39728;SDS011;25402;42.004;23.088;2023-03-01T07:52:55;7.45;;;2.53;;
39728;SDS011;25402;42.004;23.088;2023-03-01T07:55:21;3.70;;;2.22;;
39728;SDS011;25402;42.004;23.088;2023-03-01T07:57:49;3.97;;;2.17;;
39728;SDS011;25402;42.004;23.088;2023-03-01T08:00:16;6.20;;;2.22;;
39728;SDS011;25402;42.004;23.088;2023-03-01T08:02:43;6.00;;;3.50;;
39728;SDS011;25402;42.004;23.088;2023-03-01T08:05:10;7.65;;;2.90;;
39728;SDS011;25402;42.004;23.088;2023-03-01T08:07:37;13.85;;;7.65;;
39728;SDS011;25402;42.004;23.088;2023-03-01T08:10:04;7.78;;;3.40;;
39728;SDS011;25402;42.004;23.088;2023-03-01T08:12:31;4.13;;;2.13;;
39728;SDS011;25402;42.004;23.088;2023-03-01T08:14:59;6.30;;;2.90;;
39728;SDS011;25402;42.004;23.088;2023-03-01T08:17:25;4.60;;;2.55;;
39728;SDS011;25402;42.004;23.088;2023-03-01T08:19:52;5.53;;;2.38;;
39728;SDS011;25402;42.004;23.088;2023-03-01T08:22:18;7.93;;;3.33;;
39728;SDS011;25402;42.004;23.088;2023-03-01T08:24:46;4.50;;;2.67;;
39728;SDS011;25402;42.004;23.088;2023-03-01T08:27:14;3.42;;;2.10;;
39728;SDS011;25402;42.004;23.088;2023-03-01T08:29:41;10.77;;;2.72;;
39728;SDS011;25402;42.004;23.088;2023-03-01T08:32:09;10.10;;;2.88;;
39728;SDS011;25402;42.004;23.088;2023-03-01T08:34:35;6.30;;;2.10;;
39728;SDS011;25402;42.004;23.088;2023-03-01T08:37:02;3.22;;;1.77;;
39728;SDS011;25402;42.004;23.088;2023-03-01T08:39:28;4.72;;;1.73;;
39728;SDS011;25402;42.004;23.088;2023-03-01T08:41:55;8.48;;;1.88;;
39728;SDS011;25402;42.004;23.088;2023-03-01T08:44:22;3.40;;;1.92;;
39728;SDS011;25402;42.004;23.088;2023-03-01T08:46:48;5.97;;;2.00;;
39728;SDS011;25402;42.004;23.088;2023-03-01T08:49:19;2.50;;;1.70;;
39728;SDS011;25402;42.004;23.088;2023-03-01T08:51:46;1.58;;;1.40;;
39728;SDS011;25402;42.004;23.088;2023-03-01T08:54:13;3.05;;;1.45;;
39728;SDS011;25402;42.004;23.088;2023-03-01T08:56:41;6.10;;;2.25;;
39728;SDS011;25402;42.004;23.088;2023-03-01T08:59:08;2.63;;;1.65;;
39728;SDS011;25402;42.004;23.088;2023-03-01T09:01:35;5.03;;;1.88;;
39728;SDS011;25402;42.004;23.088;2023-03-01T09:04:03;1.88;;;1.70;;
39728;SDS011;25402;42.004;23.088;2023-03-01T09:06:32;5.65;;;1.60;;
39728;SDS011;25402;42.004;23.088;2023-03-01T09:08:59;2.30;;;1.65;;
39728;SDS011;25402;42.004;23.088;2023-03-01T09:11:26;2.40;;;1.70;;
39728;SDS011;25402;42.004;23.088;2023-03-01T09:13:54;7.35;;;2.30;;
39728;SDS011;25402;42.004;23.088;2023-03-01T09:16:20;8.65;;;3.00;;
39728;SDS011;25402;42.004;23.088;2023-03-01T09:18:48;3.15;;;1.83;;
39728;SDS011;25402;42.004;23.088;2023-03-01T09:21:16;4.45;;;1.98;;
39728;SDS011;25402;42.004;23.088;2023-03-01T09:23:47;7.07;;;2.90;;
39728;SDS011;25402;42.004;23.088;2023-03-01T09:26:15;3.13;;;1.85;;
39728;SDS011;25402;42.004;23.088;2023-03-01T09:28:45;3.85;;;2.10;;
39728;SDS011;25402;42.004;23.088;2023-03-01T09:31:13;2.72;;;1.90;;
39728;SDS011;25402;42.004;23.088;2023-03-01T09:33:40;4.00;;;1.80;;
39728;SDS011;25402;42.004;23.088;2023-03-01T09:36:08;3.25;;;1.90;;
39728;SDS011;25402;42.004;23.088;2023-03-01T09:38:36;2.58;;;1.73;;
39728;SDS011;25402;42.004;23.088;2023-03-01T09:41:08;3.33;;;2.40;;
39728;SDS011;25402;42.004;23.088;2023-03-01T09:43:37;7.45;;;2.35;;
39728;SDS011;25402;42.004;23.088;2023-03-01T09:46:08;4.63;;;2.30;;
39728;SDS011;25402;42.004;23.088;2023-03-01T09:48:37;3.35;;;1.80;;
39728;SDS011;25402;42.004;23.088;2023-03-01T09:51:06;6.25;;;2.28;;
39728;SDS011;25402;42.004;23.088;2023-03-01T09:53:34;6.70;;;2.53;;
39728;SDS011;25402;42.004;23.088;2023-03-01T09:56:02;3.05;;;1.95;;
39728;SDS011;25402;42.004;23.088;2023-03-01T09:58:37;4.07;;;1.75;;
39728;SDS011;25402;42.004;23.088;2023-03-01T10:01:10;3.30;;;1.77;;
39728;SDS011;25402;42.004;23.088;2023-03-01T10:03:43;4.72;;;1.90;;
39728;SDS011;25402;42.004;23.088;2023-03-01T10:06:12;10.18;;;2.53;;
39728;SDS011;25402;42.004;23.088;2023-03-01T10:08:40;3.28;;;2.00;;
39728;SDS011;25402;42.004;23.088;2023-03-01T10:11:17;5.97;;;2.08;;
39728;SDS011;25402;42.004;23.088;2023-03-01T10:13:46;6.70;;;3.47;;
39728;SDS011;25402;42.004;23.088;2023-03-01T10:16:15;15.48;;;3.45;;
39728;SDS011;25402;42.004;23.088;2023-03-01T10:18:42;4.47;;;2.00;;
39728;SDS011;25402;42.004;23.088;2023-03-01T10:21:14;6.78;;;3.13;;
39728;SDS011;25402;42.004;23.088;2023-03-01T10:23:41;3.05;;;1.77;;
39728;SDS011;25402;42.004;23.088;2023-03-01T10:26:12;2.08;;;1.88;;
39728;SDS011;25402;42.004;23.088;2023-03-01T10:28:43;3.33;;;1.80;;
39728;SDS011;25402;42.004;23.088;2023-03-01T10:31:13;5.80;;;2.70;;
39728;SDS011;25402;42.004;23.088;2023-03-01T10:33:41;2.92;;;2.05;;
39728;SDS011;25402;42.004;23.088;2023-03-01T10:36:08;9.60;;;2.53;;
39728;SDS011;25402;42.004;23.088;2023-03-01T10:38:46;6.80;;;2.40;;
39728;SDS011;25402;42.004;23.088;2023-03-01T10:41:14;6.05;;;2.47;;
39728;SDS011;25402;42.004;23.088;2023-03-01T10:43:43;7.85;;;2.30;;
39728;SDS011;25402;42.004;23.088;2023-03-01T10:46:23;4.28;;;2.50;;
39728;SDS011;25402;42.004;23.088;2023-03-01T10:48:56;6.25;;;2.17;;
39728;SDS011;25402;42.004;23.088;2023-03-01T10:51:31;5.30;;;2.25;;
39728;SDS011;25402;42.004;23.088;2023-03-01T10:53:58;3.90;;;2.10;;
39728;SDS011;25402;42.004;23.088;2023-03-01T10:56:25;8.90;;;3.17;;
39728;SDS011;25402;42.004;23.088;2023-03-01T10:58:58;4.22;;;2.20;;
39728;SDS011;25402;42.004;23.088;2023-03-01T11:01:26;4.65;;;2.20;;
39728;SDS011;25402;42.004;23.088;2023-03-01T11:04:07;5.47;;;2.08;;
39728;SDS011;25402;42.004;23.088;2023-03-01T11:06:36;5.03;;;2.30;;
39728;SDS011;25402;42.004;23.088;2023-03-01T11:09:13;10.32;;;2.53;;
39728;SDS011;25402;42.004;23.088;2023-03-01T11:11:40;11.55;;;2.65;;
39728;SDS011;25402;42.004;23.088;2023-03-01T11:14:07;7.35;;;2.78;;
39728;SDS011;25402;42.004;23.088;2023-03-01T11:16:42;5.47;;;2.50;;
39728;SDS011;25402;42.004;23.088;2023-03-01T11:19:17;7.47;;;2.50;;
39728;SDS011;25402;42.004;23.088;2023-03-01T11:21:47;11.48;;;2.65;;
39728;SDS011;25402;42.004;23.088;2023-03-01T11:26:53;16.00;;;3.83;;
39728;SDS011;25402;42.004;23.088;2023-03-01T11:29:23;16.38;;;3.67;;
39728;SDS011;25402;42.004;23.088;2023-03-01T11:31:53;15.25;;;4.70;;
39728;SDS011;25402;42.004;23.088;2023-03-01T11:34:23;12.48;;;4.38;;
39728;SDS011;25402;42.004;23.088;2023-03-01T11:36:58;16.10;;;4.10;;
39728;SDS011;25402;42.004;23.088;2023-03-01T11:39:26;8.60;;;3.17;;
39728;SDS011;25402;42.004;23.088;2023-03-01T11:41:58;36.40;;;4.90;;
39728;SDS011;25402;42.004;23.088;2023-03-01T11:44:26;20.20;;;3.65;;
39728;SDS011;25402;42.004;23.088;2023-03-01T11:47:10;7.72;;;3.17;;
39728;SDS011;25402;42.004;23.088;2023-03-01T11:49:48;9.40;;;3.35;;
39728;SDS011;25402;42.004;23.088;2023-03-01T11:52:19;4.22;;;2.80;;
39728;SDS011;25402;42.004;23.088;2023-03-01T11:54:52;11.20;;;3.05;;
39728;SDS011;25402;42.004;23.088;2023-03-01T11:57:33;9.52;;;3.88;;
39728;SDS011;25402;42.004;23.088;2023-03-01T12:00:11;10.73;;;3.55;;
39728;SDS011;25402;42.004;23.088;2023-03-01T12:02:52;13.93;;;3.72;;
39728;SDS011;25402;42.004;23.088;2023-03-01T12:08:10;24.02;;;4.25;;
39728;SDS011;25402;42.004;23.088;2023-03-01T12:10:42;9.52;;;3.75;;
39728;SDS011;25402;42.004;23.088;2023-03-01T12:13:23;15.18;;;4.75;;
39728;SDS011;25402;42.004;23.088;2023-03-01T12:21:27;18.58;;;5.40;;
39728;SDS011;25402;42.004;23.088;2023-03-01T12:24:06;16.05;;;4.05;;
39728;SDS011;25402;42.004;23.088;2023-03-01T12:26:34;12.68;;;4.68;;
39728;SDS011;25402;42.004;23.088;2023-03-01T12:29:05;9.88;;;3.38;;
39728;SDS011;25402;42.004;23.088;2023-03-01T12:31:49;10.82;;;3.10;;
39728;SDS011;25402;42.004;23.088;2023-03-01T12:37:11;12.00;;;3.25;;
39728;SDS011;25402;42.004;23.088;2023-03-01T12:39:42;9.73;;;3.80;;
39728;SDS011;25402;42.004;23.088;2023-03-01T12:42:13;13.97;;;3.73;;
39728;SDS011;25402;42.004;23.088;2023-03-01T12:44:47;8.07;;;3.95;;
39728;SDS011;25402;42.004;23.088;2023-03-01T12:47:26;10.10;;;3.70;;
39728;SDS011;25402;42.004;23.088;2023-03-01T12:49:57;11.80;;;3.47;;
39728;SDS011;25402;42.004;23.088;2023-03-01T12:52:27;9.20;;;3.70;;
39728;SDS011;25402;42.004;23.088;2023-03-01T12:54:55;20.45;;;6.25;;
39728;SDS011;25402;42.004;23.088;2023-03-01T12:57:25;30.02;;;4.50;;
39728;SDS011;25402;42.004;23.088;2023-03-01T12:59:59;33.85;;;4.85;;
39728;SDS011;25402;42.004;23.088;2023-03-01T13:02:31;11.95;;;4.38;;
39728;SDS011;25402;42.004;23.088;2023-03-01T13:05:06;11.90;;;4.57;;
39728;SDS011;25402;42.004;23.088;2023-03-01T13:07:43;17.45;;;6.40;;
39728;SDS011;25402;42.004;23.088;2023-03-01T13:10:15;17.42;;;5.80;;
39728;SDS011;25402;42.004;23.088;2023-03-01T13:12:52;22.63;;;10.00;;
39728;SDS011;25402;42.004;23.088;2023-03-01T13:15:27;14.00;;;6.70;;
39728;SDS011;25402;42.004;23.088;2023-03-01T13:17:55;16.52;;;5.35;;
39728;SDS011;25402;42.004;23.088;2023-03-01T13:20:33;10.63;;;4.43;;
39728;SDS011;25402;42.004;23.088;2023-03-01T13:23:03;10.85;;;4.97;;
39728;SDS011;25402;42.004;23.088;2023-03-01T13:25:33;13.85;;;4.75;;
39728;SDS011;25402;42.004;23.088;2023-03-01T13:30:42;19.02;;;5.90;;
39728;SDS011;25402;42.004;23.088;2023-03-01T13:36:01;27.85;;;5.57;;
39728;SDS011;25402;42.004;23.088;2023-03-01T13:38:44;20.05;;;5.90;;
39728;SDS011;25402;42.004;23.088;2023-03-01T13:41:11;16.53;;;5.53;;
39728;SDS011;25402;42.004;23.088;2023-03-01T13:43:39;15.35;;;5.15;;
39728;SDS011;25402;42.004;23.088;2023-03-01T13:46:11;9.77;;;5.35;;
39728;SDS011;25402;42.004;23.088;2023-03-01T13:48:42;12.85;;;4.70;;
39728;SDS011;25402;42.004;23.088;2023-03-01T13:51:11;10.40;;;4.85;;
39728;SDS011;25402;42.004;23.088;2023-03-01T13:53:45;7.25;;;4.10;;
39728;SDS011;25402;42.004;23.088;2023-03-01T13:56:13;14.73;;;4.95;;
39728;SDS011;25402;42.004;23.088;2023-03-01T13:58:46;9.32;;;4.45;;
39728;SDS011;25402;42.004;23.088;2023-03-01T14:01:20;10.53;;;4.57;;
39728;SDS011;25402;42.004;23.088;2023-03-01T14:03:47;14.18;;;4.60;;
39728;SDS011;25402;42.004;23.088;2023-03-01T14:06:15;11.13;;;4.20;;
39728;SDS011;25402;42.004;23.088;2023-03-01T14:08:44;12.45;;;4.40;;
39728;SDS011;25402;42.004;23.088;2023-03-01T14:16:46;10.68;;;4.25;;
39728;SDS011;25402;42.004;23.088;2023-03-01T14:19:17;11.82;;;4.20;;
39728;SDS011;25402;42.004;23.088;2023-03-01T14:21:45;7.38;;;4.65;;
39728;SDS011;25402;42.004;23.088;2023-03-01T14:24:18;14.90;;;4.60;;
39728;SDS011;25402;42.004;23.088;2023-03-01T14:26:46;10.48;;;5.45;;
39728;SDS011;25402;42.004;23.088;2023-03-01T14:29:32;6.57;;;4.63;;
39728;SDS011;25402;42.004;23.088;2023-03-01T14:32:08;7.97;;;4.60;;
39728;SDS011;25402;42.004;23.088;2023-03-01T14:34:34;11.50;;;5.50;;
39728;SDS011;25402;42.004;23.088;2023-03-01T14:37:09;10.32;;;5.35;;
39728;SDS011;25402;42.004;23.088;2023-03-01T14:39:38;11.10;;;5.55;;
39728;SDS011;25402;42.004;23.088;2023-03-01T14:42:04;10.50;;;5.40;;
39728;SDS011;25402;42.004;23.088;2023-03-01T14:44:31;22.25;;;5.75;;
39728;SDS011;25402;42.004;23.088;2023-03-01T14:47:02;15.20;;;5.35;;
39728;SDS011;25402;42.004;23.088;2023-03-01T14:49:30;24.33;;;6.28;;
39728;SDS011;25402;42.004;23.088;2023-03-01T14:51:57;14.73;;;4.93;;
39728;SDS011;25402;42.004;23.088;2023-03-01T14:54:26;14.40;;;5.45;;
39728;SDS011;25402;42.004;23.088;2023-03-01T14:56:57;10.43;;;5.22;;
39728;SDS011;25402;42.004;23.088;2023-03-01T14:59:25;12.90;;;5.75;;
39728;SDS011;25402;42.004;23.088;2023-03-01T15:01:53;10.07;;;5.78;;
39728;SDS011;25402;42.004;23.088;2023-03-01T15:04:21;11.82;;;4.80;;
39728;SDS011;25402;42.004;23.088;2023-03-01T15:06:50;10.57;;;5.20;;